Terminal Aerodrome Forecast
Issued by NWS

Home | Current Version | Previous Version | Text Only | Print | Product List | Glossary On
Versions: 1 2 3 4 5 6 7 8 9 10 11 12
000
FTUS46 KSGX 200500
TAFSNA
TAF
KSNA 200532Z 2006/2106 VRB04KT P6SM SCT030 BKN200
      TEMPO 2007/2010 BKN025
     FM201900 22007KT P6SM SCT025 SCT200
     FM210200 VRB04KT P6SM SCT025=

USA.gov is the U.S. government's official web portal to all federal, state and local government web resources and services.